sensor_id;sensor_type;location;lat;lon;timestamp;P1;durP1;ratioP1;P2;durP2;ratioP2
4464;SDS011;2245;48.136;13.428;2022-07-01T00:00:10;2.47;;;1.50;;
4464;SDS011;2245;48.136;13.428;2022-07-01T00:02:38;1.70;;;1.60;;
4464;SDS011;2245;48.136;13.428;2022-07-01T00:05:05;1.53;;;1.43;;
4464;SDS011;2245;48.136;13.428;2022-07-01T00:07:31;1.77;;;1.10;;
4464;SDS011;2245;48.136;13.428;2022-07-01T00:09:58;1.07;;;1.07;;
4464;SDS011;2245;48.136;13.428;2022-07-01T00:12:26;5.53;;;1.20;;
4464;SDS011;2245;48.136;13.428;2022-07-01T00:14:53;1.60;;;1.37;;
4464;SDS011;2245;48.136;13.428;2022-07-01T00:17:20;1.53;;;1.33;;
4464;SDS011;2245;48.136;13.428;2022-07-01T00:19:47;1.40;;;1.40;;
4464;SDS011;2245;48.136;13.428;2022-07-01T00:22:15;1.43;;;0.93;;
4464;SDS011;2245;48.136;13.428;2022-07-01T00:24:42;1.87;;;1.30;;
4464;SDS011;2245;48.136;13.428;2022-07-01T00:27:10;1.40;;;1.30;;
4464;SDS011;2245;48.136;13.428;2022-07-01T00:29:39;2.87;;;1.60;;
4464;SDS011;2245;48.136;13.428;2022-07-01T00:32:06;3.90;;;1.60;;
4464;SDS011;2245;48.136;13.428;2022-07-01T00:34:34;1.53;;;1.20;;
4464;SDS011;2245;48.136;13.428;2022-07-01T00:37:01;1.63;;;1.53;;
4464;SDS011;2245;48.136;13.428;2022-07-01T00:39:28;5.07;;;1.87;;
4464;SDS011;2245;48.136;13.428;2022-07-01T00:41:57;4.23;;;2.40;;
4464;SDS011;2245;48.136;13.428;2022-07-01T00:44:26;1.57;;;1.43;;
4464;SDS011;2245;48.136;13.428;2022-07-01T00:46:55;2.33;;;1.33;;
4464;SDS011;2245;48.136;13.428;2022-07-01T00:49:22;1.20;;;1.20;;
4464;SDS011;2245;48.136;13.428;2022-07-01T00:51:50;2.10;;;1.67;;
4464;SDS011;2245;48.136;13.428;2022-07-01T00:54:17;2.23;;;1.90;;
4464;SDS011;2245;48.136;13.428;2022-07-01T00:56:45;4.07;;;1.60;;
4464;SDS011;2245;48.136;13.428;2022-07-01T00:59:13;2.60;;;1.80;;
4464;SDS011;2245;48.136;13.428;2022-07-01T01:01:40;1.83;;;1.73;;
4464;SDS011;2245;48.136;13.428;2022-07-01T01:04:08;1.23;;;1.23;;
4464;SDS011;2245;48.136;13.428;2022-07-01T01:06:35;2.40;;;1.73;;
4464;SDS011;2245;48.136;13.428;2022-07-01T01:09:02;2.00;;;1.47;;
4464;SDS011;2245;48.136;13.428;2022-07-01T01:11:30;1.93;;;1.53;;
4464;SDS011;2245;48.136;13.428;2022-07-01T01:13:57;3.23;;;1.73;;
4464;SDS011;2245;48.136;13.428;2022-07-01T01:16:24;4.10;;;1.70;;
4464;SDS011;2245;48.136;13.428;2022-07-01T01:18:51;1.67;;;1.47;;
4464;SDS011;2245;48.136;13.428;2022-07-01T01:21:19;2.43;;;1.53;;
4464;SDS011;2245;48.136;13.428;2022-07-01T01:23:46;4.63;;;2.10;;
4464;SDS011;2245;48.136;13.428;2022-07-01T01:26:17;7.93;;;2.07;;
4464;SDS011;2245;48.136;13.428;2022-07-01T01:28:44;3.43;;;1.27;;
4464;SDS011;2245;48.136;13.428;2022-07-01T01:31:11;2.20;;;1.87;;
4464;SDS011;2245;48.136;13.428;2022-07-01T01:33:38;2.67;;;1.63;;
4464;SDS011;2245;48.136;13.428;2022-07-01T01:36:05;1.57;;;1.37;;
4464;SDS011;2245;48.136;13.428;2022-07-01T01:38:34;2.77;;;1.53;;
4464;SDS011;2245;48.136;13.428;2022-07-01T01:41:01;2.33;;;2.13;;
4464;SDS011;2245;48.136;13.428;2022-07-01T01:43:28;1.93;;;1.80;;
4464;SDS011;2245;48.136;13.428;2022-07-01T01:45:55;2.50;;;1.60;;
4464;SDS011;2245;48.136;13.428;2022-07-01T01:48:25;3.80;;;1.83;;
4464;SDS011;2245;48.136;13.428;2022-07-01T01:50:52;3.03;;;1.93;;
4464;SDS011;2245;48.136;13.428;2022-07-01T01:53:18;6.40;;;1.80;;
4464;SDS011;2245;48.136;13.428;2022-07-01T01:55:47;4.10;;;2.03;;
4464;SDS011;2245;48.136;13.428;2022-07-01T01:58:13;3.40;;;2.33;;
4464;SDS011;2245;48.136;13.428;2022-07-01T02:00:40;2.27;;;2.07;;
4464;SDS011;2245;48.136;13.428;2022-07-01T02:03:07;2.37;;;2.07;;
4464;SDS011;2245;48.136;13.428;2022-07-01T02:05:34;2.50;;;2.30;;
4464;SDS011;2245;48.136;13.428;2022-07-01T02:08:01;4.20;;;2.47;;
4464;SDS011;2245;48.136;13.428;2022-07-01T02:10:28;3.27;;;2.97;;
4464;SDS011;2245;48.136;13.428;2022-07-01T02:12:56;3.60;;;2.93;;
4464;SDS011;2245;48.136;13.428;2022-07-01T02:15:23;6.50;;;4.07;;
4464;SDS011;2245;48.136;13.428;2022-07-01T02:17:50;4.47;;;3.63;;
4464;SDS011;2245;48.136;13.428;2022-07-01T02:20:18;5.27;;;3.90;;
4464;SDS011;2245;48.136;13.428;2022-07-01T02:22:45;3.90;;;3.50;;
4464;SDS011;2245;48.136;13.428;2022-07-01T02:25:11;3.60;;;3.30;;
4464;SDS011;2245;48.136;13.428;2022-07-01T02:27:38;10.73;;;3.67;;
4464;SDS011;2245;48.136;13.428;2022-07-01T02:30:07;3.93;;;3.50;;
4464;SDS011;2245;48.136;13.428;2022-07-01T02:32:34;5.67;;;3.47;;
4464;SDS011;2245;48.136;13.428;2022-07-01T02:35:01;5.77;;;4.60;;
4464;SDS011;2245;48.136;13.428;2022-07-01T02:37:27;4.97;;;3.87;;
4464;SDS011;2245;48.136;13.428;2022-07-01T02:39:54;8.20;;;4.00;;
4464;SDS011;2245;48.136;13.428;2022-07-01T02:42:21;6.97;;;3.43;;
4464;SDS011;2245;48.136;13.428;2022-07-01T02:44:52;6.93;;;4.33;;
4464;SDS011;2245;48.136;13.428;2022-07-01T02:47:21;8.37;;;4.80;;
4464;SDS011;2245;48.136;13.428;2022-07-01T02:49:48;6.00;;;4.33;;
4464;SDS011;2245;48.136;13.428;2022-07-01T02:52:16;12.37;;;4.73;;
4464;SDS011;2245;48.136;13.428;2022-07-01T02:54:43;8.73;;;5.50;;
4464;SDS011;2245;48.136;13.428;2022-07-01T02:57:10;6.87;;;5.47;;
4464;SDS011;2245;48.136;13.428;2022-07-01T02:59:37;6.43;;;5.10;;
4464;SDS011;2245;48.136;13.428;2022-07-01T03:02:04;5.73;;;5.13;;
4464;SDS011;2245;48.136;13.428;2022-07-01T03:04:34;6.67;;;5.97;;
4464;SDS011;2245;48.136;13.428;2022-07-01T03:07:01;12.57;;;5.27;;
4464;SDS011;2245;48.136;13.428;2022-07-01T03:09:28;8.93;;;5.70;;
4464;SDS011;2245;48.136;13.428;2022-07-01T03:11:55;11.43;;;6.83;;
4464;SDS011;2245;48.136;13.428;2022-07-01T03:14:22;7.40;;;5.73;;
4464;SDS011;2245;48.136;13.428;2022-07-01T03:16:48;7.37;;;6.47;;
4464;SDS011;2245;48.136;13.428;2022-07-01T03:19:15;8.27;;;5.90;;
4464;SDS011;2245;48.136;13.428;2022-07-01T03:21:43;7.00;;;6.00;;
4464;SDS011;2245;48.136;13.428;2022-07-01T03:24:10;10.73;;;5.87;;
4464;SDS011;2245;48.136;13.428;2022-07-01T03:26:37;12.80;;;5.90;;
4464;SDS011;2245;48.136;13.428;2022-07-01T03:29:04;6.87;;;5.57;;
4464;SDS011;2245;48.136;13.428;2022-07-01T03:31:31;6.67;;;5.53;;
4464;SDS011;2245;48.136;13.428;2022-07-01T03:33:57;13.27;;;5.87;;
4464;SDS011;2245;48.136;13.428;2022-07-01T03:36:24;6.57;;;5.30;;
4464;SDS011;2245;48.136;13.428;2022-07-01T03:38:52;9.83;;;5.90;;
4464;SDS011;2245;48.136;13.428;2022-07-01T03:41:19;10.00;;;5.60;;
4464;SDS011;2245;48.136;13.428;2022-07-01T03:43:46;11.27;;;5.93;;
4464;SDS011;2245;48.136;13.428;2022-07-01T03:46:13;5.60;;;5.10;;
4464;SDS011;2245;48.136;13.428;2022-07-01T03:48:40;9.60;;;4.67;;
4464;SDS011;2245;48.136;13.428;2022-07-01T03:51:07;5.10;;;4.17;;
4464;SDS011;2245;48.136;13.428;2022-07-01T03:53:33;11.20;;;4.50;;
4464;SDS011;2245;48.136;13.428;2022-07-01T03:56:19;3.77;;;3.57;;
4464;SDS011;2245;48.136;13.428;2022-07-01T03:58:46;7.93;;;4.00;;
4464;SDS011;2245;48.136;13.428;2022-07-01T04:01:13;4.17;;;3.83;;
4464;SDS011;2245;48.136;13.428;2022-07-01T04:03:39;4.23;;;3.23;;
4464;SDS011;2245;48.136;13.428;2022-07-01T04:06:06;3.07;;;2.83;;
4464;SDS011;2245;48.136;13.428;2022-07-01T04:08:34;2.60;;;2.43;;
4464;SDS011;2245;48.136;13.428;2022-07-01T04:11:01;2.23;;;2.10;;
4464;SDS011;2245;48.136;13.428;2022-07-01T04:13:29;6.63;;;3.87;;
4464;SDS011;2245;48.136;13.428;2022-07-01T04:15:57;4.30;;;2.90;;
4464;SDS011;2245;48.136;13.428;2022-07-01T04:18:24;3.17;;;2.80;;
4464;SDS011;2245;48.136;13.428;2022-07-01T04:20:51;4.50;;;3.10;;
4464;SDS011;2245;48.136;13.428;2022-07-01T04:23:31;3.70;;;3.40;;
4464;SDS011;2245;48.136;13.428;2022-07-01T04:25:58;5.07;;;3.70;;
4464;SDS011;2245;48.136;13.428;2022-07-01T04:28:25;3.60;;;2.80;;
4464;SDS011;2245;48.136;13.428;2022-07-01T04:30:53;6.13;;;2.93;;
4464;SDS011;2245;48.136;13.428;2022-07-01T04:33:20;6.10;;;3.60;;
4464;SDS011;2245;48.136;13.428;2022-07-01T04:35:47;6.83;;;2.80;;
4464;SDS011;2245;48.136;13.428;2022-07-01T04:38:14;3.27;;;3.07;;
4464;SDS011;2245;48.136;13.428;2022-07-01T04:40:41;13.57;;;4.30;;
4464;SDS011;2245;48.136;13.428;2022-07-01T04:43:28;3.57;;;3.27;;
4464;SDS011;2245;48.136;13.428;2022-07-01T04:45:55;4.93;;;2.70;;
4464;SDS011;2245;48.136;13.428;2022-07-01T04:48:22;3.03;;;2.73;;
4464;SDS011;2245;48.136;13.428;2022-07-01T04:50:49;6.63;;;2.53;;
4464;SDS011;2245;48.136;13.428;2022-07-01T04:53:16;6.03;;;2.50;;
4464;SDS011;2245;48.136;13.428;2022-07-01T04:55:42;2.40;;;2.20;;
4464;SDS011;2245;48.136;13.428;2022-07-01T04:58:09;2.87;;;2.20;;
4464;SDS011;2245;48.136;13.428;2022-07-01T05:00:36;4.83;;;2.37;;
4464;SDS011;2245;48.136;13.428;2022-07-01T05:03:04;2.30;;;2.17;;
4464;SDS011;2245;48.136;13.428;2022-07-01T05:05:31;2.40;;;2.20;;
4464;SDS011;2245;48.136;13.428;2022-07-01T05:07:58;2.40;;;1.93;;
4464;SDS011;2245;48.136;13.428;2022-07-01T05:10:25;2.53;;;2.33;;
4464;SDS011;2245;48.136;13.428;2022-07-01T05:12:53;2.63;;;2.30;;
4464;SDS011;2245;48.136;13.428;2022-07-01T05:15:20;2.13;;;1.90;;
4464;SDS011;2245;48.136;13.428;2022-07-01T05:17:47;2.43;;;2.13;;
4464;SDS011;2245;48.136;13.428;2022-07-01T05:20:32;5.60;;;2.23;;
4464;SDS011;2245;48.136;13.428;2022-07-01T05:23:17;2.60;;;2.20;;
4464;SDS011;2245;48.136;13.428;2022-07-01T05:25:43;1.90;;;1.80;;
4464;SDS011;2245;48.136;13.428;2022-07-01T05:28:10;2.53;;;2.43;;
4464;SDS011;2245;48.136;13.428;2022-07-01T05:30:37;2.00;;;1.80;;
4464;SDS011;2245;48.136;13.428;2022-07-01T05:33:04;3.10;;;2.00;;
4464;SDS011;2245;48.136;13.428;2022-07-01T05:35:31;2.63;;;2.27;;
4464;SDS011;2245;48.136;13.428;2022-07-01T05:37:59;3.70;;;1.80;;
4464;SDS011;2245;48.136;13.428;2022-07-01T05:40:25;2.57;;;2.30;;
4464;SDS011;2245;48.136;13.428;2022-07-01T05:42:52;1.80;;;1.70;;
4464;SDS011;2245;48.136;13.428;2022-07-01T05:45:19;1.70;;;1.60;;
4464;SDS011;2245;48.136;13.428;2022-07-01T05:47:46;2.47;;;2.27;;
4464;SDS011;2245;48.136;13.428;2022-07-01T05:50:13;1.97;;;1.87;;
4464;SDS011;2245;48.136;13.428;2022-07-01T05:52:42;2.00;;;1.60;;
4464;SDS011;2245;48.136;13.428;2022-07-01T05:55:09;2.70;;;1.63;;
4464;SDS011;2245;48.136;13.428;2022-07-01T05:57:36;1.40;;;1.40;;
4464;SDS011;2245;48.136;13.428;2022-07-01T06:00:03;1.80;;;1.70;;
4464;SDS011;2245;48.136;13.428;2022-07-01T06:02:31;1.50;;;1.20;;
4464;SDS011;2245;48.136;13.428;2022-07-01T06:04:58;1.80;;;1.70;;
4464;SDS011;2245;48.136;13.428;2022-07-01T06:07:25;1.87;;;1.77;;
4464;SDS011;2245;48.136;13.428;2022-07-01T06:09:53;1.50;;;1.40;;
4464;SDS011;2245;48.136;13.428;2022-07-01T06:12:24;2.30;;;1.60;;
4464;SDS011;2245;48.136;13.428;2022-07-01T06:14:51;1.67;;;1.57;;
4464;SDS011;2245;48.136;13.428;2022-07-01T06:17:17;1.83;;;1.60;;
4464;SDS011;2245;48.136;13.428;2022-07-01T06:19:44;1.80;;;1.50;;
4464;SDS011;2245;48.136;13.428;2022-07-01T06:22:11;2.67;;;1.70;;
4464;SDS011;2245;48.136;13.428;2022-07-01T06:24:41;2.10;;;1.30;;
4464;SDS011;2245;48.136;13.428;2022-07-01T06:27:11;2.20;;;1.50;;
4464;SDS011;2245;48.136;13.428;2022-07-01T06:29:38;2.73;;;1.40;;
4464;SDS011;2245;48.136;13.428;2022-07-01T06:32:05;4.43;;;2.30;;
4464;SDS011;2245;48.136;13.428;2022-07-01T06:34:32;4.73;;;1.30;;
4464;SDS011;2245;48.136;13.428;2022-07-01T06:36:59;3.80;;;1.33;;
4464;SDS011;2245;48.136;13.428;2022-07-01T06:39:27;8.83;;;1.67;;
4464;SDS011;2245;48.136;13.428;2022-07-01T06:41:54;1.50;;;1.50;;
4464;SDS011;2245;48.136;13.428;2022-07-01T06:44:23;2.00;;;1.30;;
4464;SDS011;2245;48.136;13.428;2022-07-01T06:46:49;1.70;;;1.60;;
4464;SDS011;2245;48.136;13.428;2022-07-01T06:49:16;1.80;;;1.60;;
4464;SDS011;2245;48.136;13.428;2022-07-01T06:51:43;1.33;;;1.10;;
4464;SDS011;2245;48.136;13.428;2022-07-01T06:54:10;1.67;;;1.60;;
4464;SDS011;2245;48.136;13.428;2022-07-01T06:56:37;2.00;;;1.70;;
4464;SDS011;2245;48.136;13.428;2022-07-01T06:59:04;1.57;;;1.57;;
4464;SDS011;2245;48.136;13.428;2022-07-01T07:01:32;5.17;;;1.77;;
4464;SDS011;2245;48.136;13.428;2022-07-01T07:03:59;1.33;;;1.23;;
4464;SDS011;2245;48.136;13.428;2022-07-01T07:06:26;2.20;;;2.10;;
4464;SDS011;2245;48.136;13.428;2022-07-01T07:08:54;1.67;;;1.57;;
4464;SDS011;2245;48.136;13.428;2022-07-01T07:11:21;1.30;;;1.30;;
4464;SDS011;2245;48.136;13.428;2022-07-01T07:13:47;1.07;;;1.07;;
4464;SDS011;2245;48.136;13.428;2022-07-01T07:16:14;1.33;;;1.33;;
4464;SDS011;2245;48.136;13.428;2022-07-01T07:18:47;1.40;;;1.30;;
4464;SDS011;2245;48.136;13.428;2022-07-01T07:21:14;1.20;;;1.20;;
4464;SDS011;2245;48.136;13.428;2022-07-01T07:23:40;1.00;;;1.00;;
4464;SDS011;2245;48.136;13.428;2022-07-01T07:26:08;2.23;;;1.50;;
4464;SDS011;2245;48.136;13.428;2022-07-01T07:28:35;1.70;;;1.60;;
4464;SDS011;2245;48.136;13.428;2022-07-01T07:31:02;1.70;;;1.60;;
4464;SDS011;2245;48.136;13.428;2022-07-01T07:33:28;1.27;;;1.27;;
4464;SDS011;2245;48.136;13.428;2022-07-01T07:35:57;1.20;;;1.17;;
4464;SDS011;2245;48.136;13.428;2022-07-01T07:38:23;1.10;;;1.10;;
4464;SDS011;2245;48.136;13.428;2022-07-01T07:40:50;2.13;;;1.30;;
4464;SDS011;2245;48.136;13.428;2022-07-01T07:43:17;1.70;;;1.57;;
4464;SDS011;2245;48.136;13.428;2022-07-01T07:45:44;1.47;;;1.37;;
4464;SDS011;2245;48.136;13.428;2022-07-01T07:48:11;4.13;;;1.40;;
4464;SDS011;2245;48.136;13.428;2022-07-01T07:50:37;3.80;;;1.50;;
4464;SDS011;2245;48.136;13.428;2022-07-01T07:53:06;1.63;;;1.53;;
4464;SDS011;2245;48.136;13.428;2022-07-01T07:55:33;1.40;;;1.30;;
4464;SDS011;2245;48.136;13.428;2022-07-01T07:58:00;1.73;;;1.57;;
4464;SDS011;2245;48.136;13.428;2022-07-01T08:00:27;1.50;;;1.40;;
4464;SDS011;2245;48.136;13.428;2022-07-01T08:02:53;1.90;;;1.80;;
4464;SDS011;2245;48.136;13.428;2022-07-01T08:05:20;2.20;;;1.80;;
4464;SDS011;2245;48.136;13.428;2022-07-01T08:07:50;1.30;;;1.20;;
4464;SDS011;2245;48.136;13.428;2022-07-01T08:10:18;1.40;;;1.30;;
4464;SDS011;2245;48.136;13.428;2022-07-01T08:12:45;1.80;;;1.70;;
4464;SDS011;2245;48.136;13.428;2022-07-01T08:15:12;1.50;;;1.47;;
4464;SDS011;2245;48.136;13.428;2022-07-01T08:17:39;2.83;;;1.60;;
4464;SDS011;2245;48.136;13.428;2022-07-01T08:20:06;1.70;;;1.60;;
4464;SDS011;2245;48.136;13.428;2022-07-01T08:22:34;2.07;;;1.97;;
4464;SDS011;2245;48.136;13.428;2022-07-01T08:25:01;1.63;;;1.53;;
4464;SDS011;2245;48.136;13.428;2022-07-01T08:27:30;6.73;;;1.70;;
4464;SDS011;2245;48.136;13.428;2022-07-01T08:29:57;2.37;;;1.73;;
4464;SDS011;2245;48.136;13.428;2022-07-01T08:32:23;4.17;;;3.10;;
4464;SDS011;2245;48.136;13.428;2022-07-01T08:34:51;3.03;;;1.80;;
4464;SDS011;2245;48.136;13.428;2022-07-01T08:37:18;3.43;;;2.00;;
4464;SDS011;2245;48.136;13.428;2022-07-01T08:39:45;2.17;;;1.97;;
4464;SDS011;2245;48.136;13.428;2022-07-01T08:42:11;2.00;;;1.63;;
4464;SDS011;2245;48.136;13.428;2022-07-01T08:44:40;2.63;;;2.43;;
4464;SDS011;2245;48.136;13.428;2022-07-01T08:47:10;3.30;;;1.77;;
4464;SDS011;2245;48.136;13.428;2022-07-01T08:49:37;6.27;;;2.57;;
4464;SDS011;2245;48.136;13.428;2022-07-01T08:52:04;2.87;;;2.23;;
4464;SDS011;2245;48.136;13.428;2022-07-01T08:54:33;1.97;;;1.87;;
4464;SDS011;2245;48.136;13.428;2022-07-01T08:56:59;2.20;;;2.00;;
4464;SDS011;2245;48.136;13.428;2022-07-01T08:59:26;4.13;;;2.77;;
4464;SDS011;2245;48.136;13.428;2022-07-01T09:01:55;1.70;;;1.60;;
4464;SDS011;2245;48.136;13.428;2022-07-01T09:04:23;2.07;;;1.97;;
4464;SDS011;2245;48.136;13.428;2022-07-01T09:06:50;1.83;;;1.73;;
4464;SDS011;2245;48.136;13.428;2022-07-01T09:09:17;1.97;;;1.87;;
4464;SDS011;2245;48.136;13.428;2022-07-01T09:11:46;2.60;;;1.40;;
4464;SDS011;2245;48.136;13.428;2022-07-01T09:14:18;3.70;;;1.83;;
4464;SDS011;2245;48.136;13.428;2022-07-01T09:16:49;1.60;;;1.50;;
4464;SDS011;2245;48.136;13.428;2022-07-01T09:19:19;1.83;;;1.73;;
4464;SDS011;2245;48.136;13.428;2022-07-01T09:21:47;2.10;;;1.90;;
4464;SDS011;2245;48.136;13.428;2022-07-01T09:24:22;1.70;;;1.50;;
4464;SDS011;2245;48.136;13.428;2022-07-01T09:26:51;1.77;;;1.30;;
4464;SDS011;2245;48.136;13.428;2022-07-01T09:29:19;2.70;;;1.63;;
4464;SDS011;2245;48.136;13.428;2022-07-01T09:31:47;1.90;;;1.47;;
4464;SDS011;2245;48.136;13.428;2022-07-01T09:34:14;1.23;;;1.23;;
4464;SDS011;2245;48.136;13.428;2022-07-01T09:36:46;2.10;;;2.00;;
4464;SDS011;2245;48.136;13.428;2022-07-01T09:39:18;1.93;;;1.83;;
4464;SDS011;2245;48.136;13.428;2022-07-01T09:41:45;2.20;;;1.83;;
4464;SDS011;2245;48.136;13.428;2022-07-01T09:44:14;1.80;;;1.70;;
4464;SDS011;2245;48.136;13.428;2022-07-01T09:46:50;1.83;;;1.73;;
4464;SDS011;2245;48.136;13.428;2022-07-01T09:49:18;2.83;;;1.70;;
4464;SDS011;2245;48.136;13.428;2022-07-01T09:51:46;1.70;;;1.60;;
4464;SDS011;2245;48.136;13.428;2022-07-01T09:54:14;2.10;;;1.50;;
4464;SDS011;2245;48.136;13.428;2022-07-01T09:56:41;1.70;;;1.60;;
4464;SDS011;2245;48.136;13.428;2022-07-01T09:59:08;2.40;;;1.40;;
4464;SDS011;2245;48.136;13.428;2022-07-01T10:01:35;2.27;;;2.07;;
4464;SDS011;2245;48.136;13.428;2022-07-01T10:04:03;2.13;;;2.03;;
4464;SDS011;2245;48.136;13.428;2022-07-01T10:06:36;1.40;;;1.30;;
4464;SDS011;2245;48.136;13.428;2022-07-01T10:09:21;1.93;;;1.93;;
4464;SDS011;2245;48.136;13.428;2022-07-01T10:12:07;3.77;;;1.90;;
4464;SDS011;2245;48.136;13.428;2022-07-01T10:14:43;2.93;;;2.00;;
4464;SDS011;2245;48.136;13.428;2022-07-01T10:17:10;2.63;;;1.90;;
4464;SDS011;2245;48.136;13.428;2022-07-01T10:19:54;2.00;;;1.90;;
4464;SDS011;2245;48.136;13.428;2022-07-01T10:22:27;1.60;;;1.50;;
4464;SDS011;2245;48.136;13.428;2022-07-01T10:24:58;2.20;;;2.00;;
4464;SDS011;2245;48.136;13.428;2022-07-01T10:30:51;2.27;;;2.07;;
4464;SDS011;2245;48.136;13.428;2022-07-01T10:33:26;3.20;;;2.10;;
4464;SDS011;2245;48.136;13.428;2022-07-01T10:35:54;2.27;;;2.17;;
4464;SDS011;2245;48.136;13.428;2022-07-01T10:38:21;5.63;;;2.40;;
4464;SDS011;2245;48.136;13.428;2022-07-01T10:40:49;1.80;;;1.70;;
4464;SDS011;2245;48.136;13.428;2022-07-01T10:43:16;1.97;;;1.87;;
4464;SDS011;2245;48.136;13.428;2022-07-01T10:45:43;2.20;;;2.10;;
4464;SDS011;2245;48.136;13.428;2022-07-01T10:48:18;6.63;;;2.70;;
4464;SDS011;2245;48.136;13.428;2022-07-01T10:50:45;4.03;;;2.57;;
4464;SDS011;2245;48.136;13.428;2022-07-01T10:53:13;2.30;;;2.10;;
4464;SDS011;2245;48.136;13.428;2022-07-01T10:55:41;2.43;;;2.20;;
4464;SDS011;2245;48.136;13.428;2022-07-01T10:58:12;2.80;;;2.60;;
4464;SDS011;2245;48.136;13.428;2022-07-01T11:00:41;2.10;;;2.00;;
4464;SDS011;2245;48.136;13.428;2022-07-01T11:03:10;2.57;;;2.37;;
4464;SDS011;2245;48.136;13.428;2022-07-01T11:05:39;2.63;;;2.53;;
4464;SDS011;2245;48.136;13.428;2022-07-01T11:08:07;3.20;;;2.93;;
4464;SDS011;2245;48.136;13.428;2022-07-01T11:10:35;3.77;;;2.60;;
4464;SDS011;2245;48.136;13.428;2022-07-01T11:13:02;2.60;;;2.40;;
4464;SDS011;2245;48.136;13.428;2022-07-01T11:15:30;2.50;;;2.20;;
4464;SDS011;2245;48.136;13.428;2022-07-01T11:17:58;2.97;;;2.63;;
4464;SDS011;2245;48.136;13.428;2022-07-01T11:20:29;3.60;;;2.77;;
4464;SDS011;2245;48.136;13.428;2022-07-01T11:22:57;3.97;;;3.60;;
4464;SDS011;2245;48.136;13.428;2022-07-01T11:25:24;3.03;;;2.83;;
4464;SDS011;2245;48.136;13.428;2022-07-01T11:27:51;7.03;;;2.80;;
4464;SDS011;2245;48.136;13.428;2022-07-01T11:30:19;4.10;;;3.23;;
4464;SDS011;2245;48.136;13.428;2022-07-01T11:32:49;7.63;;;4.20;;
4464;SDS011;2245;48.136;13.428;2022-07-01T11:35:17;3.10;;;2.80;;
4464;SDS011;2245;48.136;13.428;2022-07-01T11:38:09;3.30;;;3.00;;
4464;SDS011;2245;48.136;13.428;2022-07-01T11:40:55;2.80;;;2.60;;
4464;SDS011;2245;48.136;13.428;2022-07-01T11:43:23;4.33;;;2.23;;
4464;SDS011;2245;48.136;13.428;2022-07-01T11:45:51;2.97;;;2.30;;
4464;SDS011;2245;48.136;13.428;2022-07-01T11:48:30;1.83;;;1.73;;
4464;SDS011;2245;48.136;13.428;2022-07-01T11:50:58;2.40;;;2.30;;
4464;SDS011;2245;48.136;13.428;2022-07-01T11:53:26;2.97;;;2.77;;
4464;SDS011;2245;48.136;13.428;2022-07-01T11:55:52;2.87;;;2.30;;
4464;SDS011;2245;48.136;13.428;2022-07-01T11:58:19;2.67;;;2.50;;
4464;SDS011;2245;48.136;13.428;2022-07-01T12:00:46;2.47;;;2.37;;
4464;SDS011;2245;48.136;13.428;2022-07-01T12:03:13;2.03;;;1.93;;
4464;SDS011;2245;48.136;13.428;2022-07-01T12:05:57;3.40;;;2.30;;
4464;SDS011;2245;48.136;13.428;2022-07-01T12:08:24;2.90;;;2.70;;
4464;SDS011;2245;48.136;13.428;2022-07-01T12:10:51;6.13;;;3.53;;
4464;SDS011;2245;48.136;13.428;2022-07-01T12:13:21;3.50;;;3.30;;
4464;SDS011;2245;48.136;13.428;2022-07-01T12:15:48;3.50;;;3.30;;
4464;SDS011;2245;48.136;13.428;2022-07-01T12:18:15;3.77;;;3.47;;
4464;SDS011;2245;48.136;13.428;2022-07-01T12:20:48;3.43;;;3.23;;
4464;SDS011;2245;48.136;13.428;2022-07-01T12:23:16;4.20;;;3.90;;
4464;SDS011;2245;48.136;13.428;2022-07-01T12:25:46;5.23;;;4.00;;
4464;SDS011;2245;48.136;13.428;2022-07-01T12:28:25;7.53;;;6.23;;
4464;SDS011;2245;48.136;13.428;2022-07-01T12:30:59;5.20;;;4.80;;
4464;SDS011;2245;48.136;13.428;2022-07-01T12:33:26;5.20;;;4.70;;
4464;SDS011;2245;48.136;13.428;2022-07-01T12:35:55;5.47;;;4.73;;
4464;SDS011;2245;48.136;13.428;2022-07-01T12:38:22;6.60;;;5.30;;
4464;SDS011;2245;48.136;13.428;2022-07-01T12:40:49;4.77;;;3.90;;
4464;SDS011;2245;48.136;13.428;2022-07-01T12:43:22;3.97;;;3.70;;
4464;SDS011;2245;48.136;13.428;2022-07-01T12:45:50;5.17;;;4.77;;
4464;SDS011;2245;48.136;13.428;2022-07-01T12:48:17;4.07;;;3.63;;
4464;SDS011;2245;48.136;13.428;2022-07-01T12:50:44;3.53;;;3.23;;
4464;SDS011;2245;48.136;13.428;2022-07-01T12:53:18;3.20;;;3.00;;
4464;SDS011;2245;48.136;13.428;2022-07-01T12:55:46;3.93;;;3.60;;
4464;SDS011;2245;48.136;13.428;2022-07-01T12:58:14;3.17;;;2.43;;
4464;SDS011;2245;48.136;13.428;2022-07-01T13:00:43;2.30;;;1.67;;
4464;SDS011;2245;48.136;13.428;2022-07-01T13:03:11;2.00;;;1.90;;
4464;SDS011;2245;48.136;13.428;2022-07-01T13:05:39;5.20;;;1.83;;
4464;SDS011;2245;48.136;13.428;2022-07-01T13:08:06;2.87;;;2.67;;
4464;SDS011;2245;48.136;13.428;2022-07-01T13:10:38;3.00;;;2.63;;
4464;SDS011;2245;48.136;13.428;2022-07-01T13:13:05;1.90;;;1.80;;
4464;SDS011;2245;48.136;13.428;2022-07-01T13:15:34;2.03;;;1.93;;
4464;SDS011;2245;48.136;13.428;2022-07-01T13:18:00;1.23;;;1.23;;
4464;SDS011;2245;48.136;13.428;2022-07-01T13:20:28;2.43;;;2.23;;
4464;SDS011;2245;48.136;13.428;2022-07-01T13:22:56;1.80;;;1.70;;
4464;SDS011;2245;48.136;13.428;2022-07-01T13:25:23;1.30;;;1.20;;
4464;SDS011;2245;48.136;13.428;2022-07-01T13:27:51;1.53;;;1.53;;
4464;SDS011;2245;48.136;13.428;2022-07-01T13:30:19;1.57;;;1.47;;
4464;SDS011;2245;48.136;13.428;2022-07-01T13:32:47;1.20;;;1.20;;
4464;SDS011;2245;48.136;13.428;2022-07-01T13:35:17;1.67;;;1.60;;
4464;SDS011;2245;48.136;13.428;2022-07-01T13:37:44;3.47;;;1.73;;
4464;SDS011;2245;48.136;13.428;2022-07-01T13:40:11;2.00;;;1.80;;
4464;SDS011;2245;48.136;13.428;2022-07-01T13:42:38;6.10;;;1.87;;
4464;SDS011;2245;48.136;13.428;2022-07-01T13:45:06;1.20;;;1.17;;
4464;SDS011;2245;48.136;13.428;2022-07-01T13:47:34;1.30;;;1.30;;
4464;SDS011;2245;48.136;13.428;2022-07-01T13:50:01;3.00;;;1.50;;
4464;SDS011;2245;48.136;13.428;2022-07-01T13:52:27;2.23;;;2.13;;
4464;SDS011;2245;48.136;13.428;2022-07-01T13:54:54;2.00;;;1.90;;
4464;SDS011;2245;48.136;13.428;2022-07-01T13:57:22;2.70;;;2.50;;
4464;SDS011;2245;48.136;13.428;2022-07-01T13:59:48;1.93;;;1.83;;
4464;SDS011;2245;48.136;13.428;2022-07-01T14:02:17;2.00;;;1.90;;
4464;SDS011;2245;48.136;13.428;2022-07-01T14:04:44;2.13;;;1.80;;
4464;SDS011;2245;48.136;13.428;2022-07-01T14:07:11;1.40;;;1.30;;
4464;SDS011;2245;48.136;13.428;2022-07-01T14:09:38;1.20;;;1.20;;
4464;SDS011;2245;48.136;13.428;2022-07-01T14:12:05;1.00;;;1.00;;
4464;SDS011;2245;48.136;13.428;2022-07-01T14:14:33;0.73;;;0.73;;
4464;SDS011;2245;48.136;13.428;2022-07-01T14:17:00;1.07;;;1.00;;
4464;SDS011;2245;48.136;13.428;2022-07-01T14:19:28;0.90;;;0.90;;
4464;SDS011;2245;48.136;13.428;2022-07-01T14:21:55;1.10;;;1.10;;
4464;SDS011;2245;48.136;13.428;2022-07-01T14:24:22;1.20;;;1.10;;
4464;SDS011;2245;48.136;13.428;2022-07-01T14:26:48;1.00;;;1.00;;
4464;SDS011;2245;48.136;13.428;2022-07-01T14:29:15;1.80;;;1.23;;
4464;SDS011;2245;48.136;13.428;2022-07-01T14:31:42;0.87;;;0.87;;
4464;SDS011;2245;48.136;13.428;2022-07-01T14:34:09;1.17;;;1.17;;
4464;SDS011;2245;48.136;13.428;2022-07-01T14:36:37;3.80;;;0.90;;
4464;SDS011;2245;48.136;13.428;2022-07-01T14:39:04;1.80;;;0.87;;
4464;SDS011;2245;48.136;13.428;2022-07-01T14:41:31;3.40;;;1.97;;
4464;SDS011;2245;48.136;13.428;2022-07-01T14:43:57;3.03;;;1.87;;
4464;SDS011;2245;48.136;13.428;2022-07-01T14:46:24;3.57;;;1.40;;
4464;SDS011;2245;48.136;13.428;2022-07-01T14:48:51;9.93;;;1.53;;
4464;SDS011;2245;48.136;13.428;2022-07-01T14:51:18;1.13;;;1.10;;
4464;SDS011;2245;48.136;13.428;2022-07-01T14:53:46;1.10;;;1.10;;
4464;SDS011;2245;48.136;13.428;2022-07-01T14:56:13;1.47;;;1.40;;
4464;SDS011;2245;48.136;13.428;2022-07-01T14:58:40;2.00;;;1.80;;
4464;SDS011;2245;48.136;13.428;2022-07-01T15:01:07;1.30;;;1.20;;
4464;SDS011;2245;48.136;13.428;2022-07-01T15:03:35;2.13;;;1.40;;
4464;SDS011;2245;48.136;13.428;2022-07-01T15:06:03;1.17;;;1.07;;
4464;SDS011;2245;48.136;13.428;2022-07-01T15:08:30;1.00;;;1.00;;